Terminal Aerodrome Forecast
Issued by NWS

Home | Current Version | Previous Version | Text Only | Print | Product List | Glossary On
Versions: 1 2 3 4 5 6 7 8 9 10 11 12 13
000
FTUS44 KLIX 031121
TAFGPT
TAF
KGPT 031121Z 0312/0412 00000KT P6SM SKC
     FM031500 15007KT P6SM SCT040 BKN250
     FM031800 17008KT P6SM VCTS BKN035CB BKN250
      TEMPO 0319/0323 3SM -TSRA BKN030CB
     FM040100 VRB03KT P6SM SCT110 BKN250=

USA.gov is the U.S. government's official web portal to all federal, state and local government web resources and services.